createdAt,value
2017-10-29T00:00:32.450Z,6.73
2017-10-29T00:03:00.572Z,7.00
2017-10-29T00:05:28.735Z,7.30
2017-10-29T00:07:56.879Z,6.93
2017-10-29T00:10:25.817Z,7.80
2017-10-29T00:12:53.967Z,6.87
2017-10-29T00:15:22.120Z,7.03
2017-10-29T00:17:51.063Z,7.80
2017-10-29T00:20:19.208Z,8.70
2017-10-29T00:22:47.360Z,7.70
2017-10-29T00:25:16.279Z,6.50
2017-10-29T00:27:44.406Z,7.30
2017-10-29T00:30:12.537Z,6.23
2017-10-29T00:32:40.670Z,7.03
2017-10-29T00:35:09.680Z,6.60
2017-10-29T00:37:38.560Z,7.87
2017-10-29T00:40:06.747Z,6.90
2017-10-29T00:42:35.102Z,7.23
2017-10-29T00:45:04.090Z,6.70
2017-10-29T00:47:32.349Z,7.53
2017-10-29T00:50:00.498Z,6.60
2017-10-29T00:52:28.742Z,6.87
2017-10-29T00:54:57.663Z,7.40
2017-10-29T00:57:25.821Z,6.90
2017-10-29T00:59:54.111Z,6.00
2017-10-29T01:02:23.011Z,7.20
2017-10-29T01:04:51.207Z,6.00
2017-10-29T01:07:20.202Z,6.33
2017-10-29T01:09:48.464Z,6.43
2017-10-29T01:12:16.596Z,5.80
2017-10-29T01:14:44.714Z,6.73
2017-10-29T01:17:13.862Z,6.00
2017-10-29T01:19:42.013Z,5.60
2017-10-29T01:22:10.172Z,6.40
2017-10-29T01:24:38.342Z,5.33
2017-10-29T01:27:07.241Z,6.30
2017-10-29T01:29:35.401Z,5.23
2017-10-29T01:32:04.297Z,5.33
2017-10-29T01:34:33.272Z,5.47
2017-10-29T01:37:02.168Z,6.13
2017-10-29T01:39:31.095Z,5.93
2017-10-29T01:42:00.089Z,6.10
2017-10-29T01:44:28.419Z,7.03
2017-10-29T01:46:57.361Z,5.20
2017-10-29T01:49:25.502Z,5.77
2017-10-29T01:51:54.483Z,6.03
2017-10-29T01:54:22.715Z,5.60
2017-10-29T01:56:50.912Z,6.10
2017-10-29T01:59:20.528Z,5.77
2017-10-29T02:01:49.072Z,5.60
2017-10-29T02:04:17.190Z,7.07
2017-10-29T02:06:46.072Z,6.20
2017-10-29T02:09:15.190Z,6.50
2017-10-29T02:11:43.395Z,7.07
2017-10-29T02:14:13.028Z,5.90
2017-10-29T02:16:41.282Z,5.83
2017-10-29T02:19:09.567Z,6.53
2017-10-29T02:21:38.661Z,7.00
2017-10-29T02:24:06.783Z,7.10
2017-10-29T02:26:35.674Z,6.13
2017-10-29T02:29:04.842Z,6.13
2017-10-29T02:31:33.009Z,6.20
2017-10-29T02:34:02.017Z,6.20
2017-10-29T02:36:30.424Z,5.60
2017-10-29T02:38:58.556Z,5.50
2017-10-29T02:41:26.690Z,5.10
2017-10-29T02:43:54.812Z,5.53
2017-10-29T02:46:22.967Z,4.53
2017-10-29T02:48:51.101Z,4.77
2017-10-29T02:51:19.988Z,5.70
2017-10-29T02:53:49.022Z,4.93
2017-10-29T02:56:17.178Z,4.93
2017-10-29T02:58:45.324Z,4.30
2017-10-29T03:01:13.501Z,5.10
2017-10-29T03:03:41.660Z,5.27
2017-10-29T03:06:10.542Z,4.33
2017-10-29T03:08:39.443Z,4.73
2017-10-29T03:11:07.648Z,4.37
2017-10-29T03:13:35.781Z,4.13
2017-10-29T03:16:03.937Z,4.20
2017-10-29T03:18:32.848Z,4.20
2017-10-29T03:21:01.115Z,4.53
2017-10-29T03:23:30.044Z,4.00
2017-10-29T03:25:58.213Z,4.13
2017-10-29T03:28:26.367Z,4.50
2017-10-29T03:30:55.248Z,4.30
2017-10-29T03:33:23.445Z,4.10
2017-10-29T03:35:51.641Z,4.23
2017-10-29T03:38:19.978Z,4.33
2017-10-29T03:40:48.103Z,3.93
2017-10-29T03:43:16.259Z,3.97
2017-10-29T03:45:44.521Z,3.63
2017-10-29T03:48:12.659Z,4.00
2017-10-29T03:50:42.482Z,4.03
2017-10-29T03:53:10.638Z,3.57
2017-10-29T03:55:39.516Z,3.30
2017-10-29T03:58:08.443Z,3.90
2017-10-29T04:00:36.780Z,3.90
2017-10-29T04:03:04.974Z,4.00
2017-10-29T04:05:33.100Z,3.27
2017-10-29T04:08:01.320Z,3.30
2017-10-29T04:10:29.900Z,2.93
2017-10-29T04:12:58.787Z,2.37
2017-10-29T04:15:27.728Z,2.93
2017-10-29T04:17:56.868Z,3.30
2017-10-29T04:20:25.888Z,2.90
2017-10-29T04:22:54.074Z,2.60
2017-10-29T04:25:22.994Z,2.50
2017-10-29T04:27:51.146Z,3.10
2017-10-29T04:30:19.274Z,2.83
2017-10-29T04:32:48.160Z,2.30
2017-10-29T04:35:16.352Z,2.73
2017-10-29T04:37:44.518Z,2.73
2017-10-29T04:40:13.456Z,2.40
2017-10-29T04:42:41.604Z,2.47
2017-10-29T04:45:09.735Z,3.03
2017-10-29T04:47:38.661Z,2.80
2017-10-29T04:50:06.808Z,2.60
2017-10-29T04:52:35.958Z,3.00
2017-10-29T04:55:04.125Z,2.60
2017-10-29T04:57:32.397Z,2.87
2017-10-29T05:00:00.556Z,2.63
2017-10-29T05:02:29.585Z,3.17
2017-10-29T05:04:58.551Z,2.90
2017-10-29T05:07:27.450Z,3.30
2017-10-29T05:09:55.576Z,2.80
2017-10-29T05:12:23.994Z,2.97
2017-10-29T05:14:52.113Z,3.37
2017-10-29T05:17:21.106Z,2.90
2017-10-29T05:19:50.193Z,3.10
2017-10-29T05:22:18.333Z,3.00
2017-10-29T05:24:47.204Z,3.03
2017-10-29T05:27:15.336Z,2.80
2017-10-29T05:29:44.296Z,2.33
2017-10-29T05:32:12.405Z,2.30
2017-10-29T05:34:41.856Z,2.77
2017-10-29T05:37:10.090Z,2.30
2017-10-29T05:39:39.008Z,2.63
2017-10-29T05:42:07.228Z,3.50
2017-10-29T05:44:35.508Z,2.57
2017-10-29T05:47:03.672Z,3.13
2017-10-29T05:49:31.788Z,2.43
2017-10-29T05:51:59.972Z,2.90
2017-10-29T05:54:28.251Z,3.17
2017-10-29T05:56:56.372Z,3.00
2017-10-29T05:59:26.046Z,2.57
2017-10-29T06:01:54.228Z,2.40
2017-10-29T06:04:22.582Z,2.63
2017-10-29T06:06:50.715Z,2.13
2017-10-29T06:09:19.656Z,1.90
2017-10-29T06:11:47.872Z,2.80
2017-10-29T06:14:16.898Z,2.00
2017-10-29T06:16:46.754Z,2.30
2017-10-29T06:19:15.160Z,2.00
2017-10-29T06:21:44.242Z,2.20
2017-10-29T06:24:12.424Z,2.43
2017-10-29T06:26:40.552Z,2.33
2017-10-29T06:29:08.901Z,2.00
2017-10-29T06:31:37.051Z,2.20
2017-10-29T06:34:05.952Z,1.83
2017-10-29T06:36:34.116Z,1.90
2017-10-29T06:39:02.369Z,1.90
2017-10-29T06:41:30.616Z,1.80
2017-10-29T06:43:58.849Z,1.50
2017-10-29T06:46:27.780Z,1.77
2017-10-29T06:48:55.934Z,2.10
2017-10-29T06:51:24.086Z,1.60
2017-10-29T06:53:53.026Z,1.80
2017-10-29T06:56:21.135Z,1.63
2017-10-29T06:58:49.306Z,1.67
2017-10-29T07:01:17.521Z,1.70
2017-10-29T07:03:45.756Z,1.60
2017-10-29T07:06:13.885Z,1.57
2017-10-29T07:08:42.896Z,1.57
2017-10-29T07:11:11.147Z,1.87
2017-10-29T07:13:39.298Z,1.70
2017-10-29T07:16:07.464Z,1.43
2017-10-29T07:18:36.447Z,1.50
2017-10-29T07:21:04.607Z,1.57
2017-10-29T07:23:32.826Z,1.30
2017-10-29T07:26:01.797Z,1.83
2017-10-29T07:28:30.005Z,1.40
2017-10-29T07:30:58.185Z,1.50
2017-10-29T07:33:26.356Z,1.60
2017-10-29T07:35:56.534Z,1.50
2017-10-29T07:38:24.759Z,1.70
2017-10-29T07:40:53.269Z,1.50
2017-10-29T07:43:21.412Z,1.40
2017-10-29T07:45:49.598Z,1.53
2017-10-29T07:48:17.752Z,1.33
2017-10-29T07:50:45.933Z,1.80
2017-10-29T07:53:14.165Z,1.50
2017-10-29T07:55:42.312Z,1.97
2017-10-29T07:58:10.461Z,1.70
2017-10-29T08:00:38.665Z,1.50
2017-10-29T08:03:07.571Z,1.80
2017-10-29T08:05:35.696Z,1.77
2017-10-29T08:08:03.919Z,2.63
2017-10-29T08:10:32.079Z,1.90
2017-10-29T08:13:00.985Z,1.40
2017-10-29T08:15:29.201Z,1.50
2017-10-29T08:17:57.330Z,2.00
2017-10-29T08:20:25.512Z,1.40
2017-10-29T08:22:53.648Z,1.60
2017-10-29T08:25:22.575Z,1.40
2017-10-29T08:27:50.803Z,1.47
2017-10-29T08:30:19.739Z,1.70
2017-10-29T08:32:47.955Z,2.00
2017-10-29T08:35:16.252Z,1.50
2017-10-29T08:37:45.188Z,1.60
2017-10-29T08:40:13.331Z,1.60
2017-10-29T08:42:42.293Z,1.47
2017-10-29T08:45:10.535Z,1.53
2017-10-29T08:47:39.489Z,1.77
2017-10-29T08:50:07.689Z,1.80
2017-10-29T08:52:35.918Z,1.47
2017-10-29T08:55:04.038Z,1.50
2017-10-29T08:57:32.190Z,1.80
2017-10-29T09:00:00.499Z,1.60
2017-10-29T09:02:28.631Z,1.83
2017-10-29T09:04:57.565Z,1.70
2017-10-29T09:07:26.779Z,1.73
2017-10-29T09:09:55.831Z,1.50
2017-10-29T09:12:24.014Z,1.20
2017-10-29T09:14:52.177Z,1.70
2017-10-29T09:17:21.230Z,1.60
2017-10-29T09:19:49.573Z,2.60
2017-10-29T09:22:17.754Z,1.83
2017-10-29T09:24:45.917Z,1.87
2017-10-29T09:27:14.852Z,2.10
2017-10-29T09:29:43.791Z,1.70
2017-10-29T09:32:11.980Z,1.90
2017-10-29T09:34:40.175Z,2.13
2017-10-29T09:37:08.347Z,1.90
2017-10-29T09:39:37.300Z,2.13
2017-10-29T09:42:05.434Z,2.10
2017-10-29T09:44:33.602Z,2.90
2017-10-29T09:47:02.563Z,2.63
2017-10-29T09:49:30.731Z,2.00
2017-10-29T09:51:59.992Z,2.50
2017-10-29T09:54:28.139Z,2.37
2017-10-29T09:56:57.054Z,2.33
2017-10-29T09:59:25.203Z,3.13
2017-10-29T10:01:54.163Z,2.10
2017-10-29T10:04:22.396Z,3.00
2017-10-29T10:06:50.617Z,2.30
2017-10-29T10:09:18.801Z,3.13
2017-10-29T10:11:47.728Z,2.70
2017-10-29T10:14:15.958Z,2.93
2017-10-29T10:16:44.117Z,3.07
2017-10-29T10:19:12.262Z,3.00
2017-10-29T10:21:40.454Z,2.90
2017-10-29T10:24:08.611Z,2.70
2017-10-29T10:26:36.785Z,2.63
2017-10-29T10:29:04.939Z,3.33
2017-10-29T10:31:33.270Z,3.07
2017-10-29T10:34:02.001Z,3.40
2017-10-29T10:36:30.199Z,2.60
2017-10-29T10:38:58.372Z,2.70
2017-10-29T10:41:26.547Z,2.80
2017-10-29T10:43:54.785Z,2.47
2017-10-29T10:46:22.993Z,2.70
2017-10-29T10:48:51.274Z,3.20
2017-10-29T10:51:19.482Z,2.80
2017-10-29T10:53:47.734Z,2.90
2017-10-29T10:56:17.812Z,3.80
2017-10-29T10:58:45.957Z,3.83
2017-10-29T11:01:14.888Z,4.60
2017-10-29T11:03:43.053Z,4.27
2017-10-29T11:06:11.220Z,4.67
2017-10-29T11:08:40.167Z,6.30
2017-10-29T11:11:08.374Z,5.80
2017-10-29T11:13:36.606Z,4.40
2017-10-29T11:16:05.566Z,4.47
2017-10-29T11:18:33.745Z,4.20
2017-10-29T11:21:01.966Z,5.10
2017-10-29T11:23:30.118Z,4.80
2017-10-29T11:25:58.378Z,4.73
2017-10-29T11:28:26.722Z,6.00
2017-10-29T11:30:54.925Z,5.27
2017-10-29T11:33:23.127Z,5.50
2017-10-29T11:35:51.373Z,6.00
2017-10-29T11:38:19.584Z,5.33
2017-10-29T11:40:48.305Z,4.90
2017-10-29T11:43:17.630Z,4.83
2017-10-29T11:45:45.792Z,4.83
2017-10-29T11:48:14.006Z,4.90
2017-10-29T11:50:42.262Z,5.13
2017-10-29T11:53:10.420Z,7.47
2017-10-29T11:55:39.326Z,5.40
2017-10-29T11:58:07.888Z,5.80
2017-10-29T12:00:37.404Z,6.27
2017-10-29T12:03:05.554Z,5.17
2017-10-29T12:05:34.478Z,5.03
2017-10-29T12:08:02.665Z,5.80
2017-10-29T12:10:30.817Z,4.43
2017-10-29T12:12:58.989Z,4.80
2017-10-29T12:15:27.180Z,3.60
2017-10-29T12:17:55.440Z,5.00
2017-10-29T12:20:23.635Z,5.20
2017-10-29T12:22:51.804Z,4.77
2017-10-29T12:25:19.980Z,3.90
2017-10-29T12:27:48.952Z,4.70
2017-10-29T12:30:17.147Z,5.70
2017-10-29T12:32:45.388Z,4.50
2017-10-29T12:35:13.579Z,3.67
2017-10-29T12:37:41.801Z,4.60
2017-10-29T12:40:10.010Z,3.80
2017-10-29T12:42:38.273Z,3.87
2017-10-29T12:45:07.195Z,4.20
2017-10-29T12:47:36.475Z,3.73
2017-10-29T12:50:05.391Z,3.90
2017-10-29T12:52:33.941Z,4.80
2017-10-29T12:55:02.871Z,5.13
2017-10-29T12:57:31.146Z,3.80
2017-10-29T12:59:59.351Z,7.30
2017-10-29T13:02:28.305Z,3.87
2017-10-29T13:04:56.457Z,3.80
2017-10-29T13:07:24.736Z,4.40
2017-10-29T13:09:52.884Z,4.07
2017-10-29T13:12:21.833Z,3.40
2017-10-29T13:14:50.074Z,4.33
2017-10-29T13:17:18.255Z,3.97
2017-10-29T13:19:46.448Z,4.03
2017-10-29T13:22:14.690Z,3.67
2017-10-29T13:24:43.113Z,3.70
2017-10-29T13:27:11.246Z,4.00
2017-10-29T13:29:39.531Z,3.90
2017-10-29T13:32:07.827Z,4.10
2017-10-29T13:34:36.011Z,4.57
2017-10-29T13:37:04.186Z,3.77
2017-10-29T13:39:32.420Z,3.83
2017-10-29T13:42:01.642Z,3.03
2017-10-29T13:44:29.830Z,3.67
2017-10-29T13:46:58.084Z,3.80
2017-10-29T13:49:26.478Z,4.00
2017-10-29T13:51:55.217Z,4.20
2017-10-29T13:54:23.400Z,3.27
2017-10-29T13:56:51.553Z,4.87
2017-10-29T13:59:19.709Z,4.30
2017-10-29T14:01:47.921Z,3.97
2017-10-29T14:04:16.885Z,3.57
2017-10-29T14:06:46.040Z,4.23
2017-10-29T14:09:14.204Z,3.93
2017-10-29T14:11:42.411Z,4.50
2017-10-29T14:14:10.589Z,2.87
2017-10-29T14:16:38.722Z,3.77
2017-10-29T14:19:06.874Z,4.10
2017-10-29T14:21:35.045Z,3.20
2017-10-29T14:24:03.987Z,3.93
2017-10-29T14:26:32.181Z,2.77
2017-10-29T14:29:00.402Z,3.80
2017-10-29T14:31:28.773Z,3.23
2017-10-29T14:33:56.931Z,4.60
2017-10-29T14:36:25.197Z,3.30
2017-10-29T14:38:53.385Z,4.37
2017-10-29T14:41:21.541Z,2.90
2017-10-29T14:43:49.931Z,3.37
2017-10-29T14:46:18.908Z,2.73
2017-10-29T14:48:47.079Z,4.60
2017-10-29T14:51:15.277Z,2.97
2017-10-29T14:53:43.727Z,3.20
2017-10-29T14:56:12.612Z,3.80
2017-10-29T14:58:41.550Z,3.20
2017-10-29T15:01:09.785Z,4.07
2017-10-29T15:03:38.963Z,3.40
2017-10-29T15:06:07.103Z,3.73
2017-10-29T15:08:35.315Z,3.40
2017-10-29T15:11:03.649Z,3.70
2017-10-29T15:13:31.804Z,3.17
2017-10-29T15:16:00.727Z,3.33
2017-10-29T15:18:28.981Z,2.87
2017-10-29T15:20:58.121Z,3.53
2017-10-29T15:23:27.379Z,3.30
2017-10-29T15:25:55.581Z,3.37
2017-10-29T15:28:24.300Z,4.33
2017-10-29T15:30:52.476Z,3.57
2017-10-29T15:33:20.614Z,3.23
2017-10-29T15:35:50.042Z,3.40
2017-10-29T15:38:18.212Z,3.73
2017-10-29T15:40:46.415Z,3.37
2017-10-29T15:43:15.654Z,3.90
2017-10-29T15:45:44.106Z,3.70
2017-10-29T15:48:12.384Z,3.80
2017-10-29T15:50:41.319Z,3.43
2017-10-29T15:53:09.534Z,2.93
2017-10-29T15:55:38.482Z,3.50
2017-10-29T15:58:06.730Z,4.50
2017-10-29T16:00:34.949Z,2.97
2017-10-29T16:03:03.192Z,3.10
2017-10-29T16:05:31.440Z,3.70
2017-10-29T16:08:00.319Z,4.07
2017-10-29T16:10:28.521Z,2.90
2017-10-29T16:12:58.419Z,3.53
2017-10-29T16:15:27.424Z,3.87
2017-10-29T16:17:55.557Z,3.10
2017-10-29T16:20:23.728Z,3.80
2017-10-29T16:23:00.205Z,6.43
2017-10-29T16:25:28.889Z,4.70
2017-10-29T16:27:57.845Z,4.97
2017-10-29T16:30:25.995Z,3.93
2017-10-29T16:32:54.167Z,3.90
2017-10-29T16:35:22.430Z,3.60
2017-10-29T16:37:50.595Z,3.67
2017-10-29T16:40:18.770Z,3.70
2017-10-29T16:42:47.013Z,3.07
2017-10-29T16:45:16.262Z,3.53
2017-10-29T16:47:46.270Z,3.90
2017-10-29T16:50:14.873Z,3.90
2017-10-29T16:52:43.121Z,3.70
2017-10-29T16:55:12.082Z,5.20
2017-10-29T16:57:40.245Z,4.40
2017-10-29T17:00:08.437Z,4.30
2017-10-29T17:02:36.607Z,4.10
2017-10-29T17:05:04.775Z,4.77
2017-10-29T17:07:32.911Z,3.97
2017-10-29T17:10:01.938Z,3.70
2017-10-29T17:12:30.069Z,3.87
2017-10-29T17:14:58.991Z,3.53
2017-10-29T17:17:27.137Z,3.17
2017-10-29T17:19:56.080Z,3.93
2017-10-29T17:22:24.217Z,3.00
2017-10-29T17:24:52.381Z,2.90
2017-10-29T17:27:20.564Z,3.40
2017-10-29T17:29:48.717Z,3.30
2017-10-29T17:32:16.909Z,2.73
2017-10-29T17:34:45.128Z,3.10
2017-10-29T17:37:13.383Z,3.00
2017-10-29T17:39:42.432Z,2.63
2017-10-29T17:42:10.611Z,2.80
2017-10-29T17:44:39.509Z,2.17
2017-10-29T17:47:07.750Z,2.80
2017-10-29T17:49:35.920Z,3.50
2017-10-29T17:52:04.093Z,3.57
2017-10-29T17:54:32.303Z,3.17
2017-10-29T17:57:01.200Z,2.87
2017-10-29T17:59:29.416Z,2.90
2017-10-29T18:01:57.572Z,3.30
2017-10-29T18:04:25.764Z,3.07
2017-10-29T18:06:53.927Z,3.27
2017-10-29T18:09:22.764Z,3.33
2017-10-29T18:11:50.957Z,3.10
2017-10-29T18:14:19.877Z,2.60
2017-10-29T18:16:48.078Z,2.90
2017-10-29T18:19:16.270Z,3.17
2017-10-29T18:21:44.477Z,3.63
2017-10-29T18:24:13.525Z,2.33
2017-10-29T18:26:41.688Z,2.97
2017-10-29T18:29:09.818Z,3.13
2017-10-29T18:31:37.998Z,3.20
2017-10-29T18:34:06.198Z,2.90
2017-10-29T18:36:34.373Z,2.70
2017-10-29T18:39:02.505Z,3.77
2017-10-29T18:41:30.764Z,3.43
2017-10-29T18:43:59.683Z,3.00
2017-10-29T18:46:27.856Z,3.73
2017-10-29T18:48:56.017Z,3.10
2017-10-29T18:51:24.983Z,3.23
2017-10-29T18:53:53.925Z,3.67
2017-10-29T18:56:22.118Z,3.90
2017-10-29T18:58:50.496Z,4.53
2017-10-29T19:01:18.694Z,3.20
2017-10-29T19:03:46.852Z,3.90
2017-10-29T19:06:15.130Z,3.80
2017-10-29T19:08:43.305Z,4.13
2017-10-29T19:11:11.461Z,4.13
2017-10-29T19:13:39.622Z,3.60
2017-10-29T19:16:07.861Z,3.87
2017-10-29T19:18:36.020Z,3.50
2017-10-29T19:21:04.986Z,3.37
2017-10-29T19:23:33.191Z,3.53
2017-10-29T19:26:02.133Z,3.33
2017-10-29T19:28:30.355Z,3.47
2017-10-29T19:30:59.291Z,3.20
2017-10-29T19:33:27.456Z,3.20
2017-10-29T19:35:55.615Z,3.10
2017-10-29T19:38:24.658Z,3.50
2017-10-29T19:40:53.015Z,3.37
2017-10-29T19:43:21.169Z,3.03
2017-10-29T19:45:50.090Z,3.47
2017-10-29T19:48:18.335Z,3.87
2017-10-29T19:50:47.312Z,3.80
2017-10-29T19:53:16.241Z,3.53
2017-10-29T19:55:44.419Z,3.43
2017-10-29T19:58:12.701Z,3.33
2017-10-29T20:00:42.615Z,3.23
2017-10-29T20:03:10.796Z,3.43
2017-10-29T20:05:39.008Z,4.03
2017-10-29T20:08:07.162Z,3.30
2017-10-29T20:10:36.158Z,4.43
2017-10-29T20:13:04.317Z,3.17
2017-10-29T20:15:33.291Z,3.57
2017-10-29T20:18:01.489Z,3.50
2017-10-29T20:20:29.686Z,3.80
2017-10-29T20:22:57.823Z,3.10
2017-10-29T20:25:25.998Z,4.00
2017-10-29T20:27:54.992Z,3.30
2017-10-29T20:30:23.185Z,3.63
2017-10-29T20:32:52.215Z,3.63
2017-10-29T20:35:21.162Z,3.20
2017-10-29T20:37:50.166Z,4.00
2017-10-29T20:40:19.165Z,3.37
2017-10-29T20:42:47.366Z,3.27
2017-10-29T20:45:15.532Z,3.20
2017-10-29T20:47:44.662Z,3.07
2017-10-29T20:50:12.846Z,2.90
2017-10-29T20:52:41.033Z,3.57
2017-10-29T20:55:10.340Z,4.20
2017-10-29T20:57:38.546Z,3.90
2017-10-29T21:00:06.681Z,3.80
2017-10-29T21:02:35.666Z,3.67
2017-10-29T21:05:04.584Z,4.10
2017-10-29T21:07:32.863Z,3.90
2017-10-29T21:10:01.025Z,3.43
2017-10-29T21:12:29.192Z,2.90
2017-10-29T21:14:58.122Z,3.10
2017-10-29T21:17:27.043Z,4.50
2017-10-29T21:19:55.200Z,5.80
2017-10-29T21:22:23.498Z,5.40
2017-10-29T21:24:51.672Z,5.70
2017-10-29T21:27:19.886Z,6.20
2017-10-29T21:29:48.066Z,6.00
2017-10-29T21:32:16.238Z,8.90
2017-10-29T21:34:45.166Z,9.00
2017-10-29T21:37:14.096Z,9.50
2017-10-29T21:39:42.379Z,7.87
2017-10-29T21:42:10.574Z,8.23
2017-10-29T21:44:38.817Z,7.70
2017-10-29T21:47:07.832Z,7.80
2017-10-29T21:49:36.609Z,8.50
2017-10-29T21:52:04.797Z,9.03
2017-10-29T21:54:33.010Z,9.93
2017-10-29T21:57:01.181Z,7.93
2017-10-29T21:59:29.344Z,7.27
2017-10-29T22:01:57.602Z,7.30
2017-10-29T22:04:25.819Z,6.67
2017-10-29T22:06:55.525Z,6.40
2017-10-29T22:09:24.034Z,5.30
2017-10-29T22:11:52.258Z,5.87
2017-10-29T22:16:55.647Z,6.90
2017-10-29T22:19:23.777Z,6.30
2017-10-29T22:21:52.691Z,5.03
2017-10-29T22:24:20.891Z,4.80
2017-10-29T22:26:49.058Z,5.00
2017-10-29T22:29:17.272Z,4.80
2017-10-29T22:31:45.516Z,6.70
2017-10-29T22:34:15.213Z,5.73
2017-10-29T22:36:43.407Z,4.70
2017-10-29T22:39:11.603Z,5.10
2017-10-29T22:41:40.518Z,6.20
2017-10-29T22:44:08.772Z,5.03
2017-10-29T22:46:36.938Z,5.17
2017-10-29T22:49:05.940Z,5.33
2017-10-29T22:51:34.844Z,5.73
2017-10-29T22:54:03.745Z,5.80
2017-10-29T22:56:31.991Z,6.03
2017-10-29T22:59:00.173Z,6.70
2017-10-29T23:01:29.151Z,6.60
2017-10-29T23:03:57.676Z,6.20
2017-10-29T23:06:37.978Z,7.20
2017-10-29T23:09:06.139Z,6.27
2017-10-29T23:11:34.304Z,6.40
2017-10-29T23:14:02.464Z,6.20
2017-10-29T23:16:31.277Z,5.47
2017-10-29T23:18:59.421Z,7.03
2017-10-29T23:21:27.575Z,5.57
2017-10-29T23:23:55.990Z,6.40
2017-10-29T23:26:24.129Z,6.77
2017-10-29T23:28:52.288Z,6.17
2017-10-29T23:31:21.198Z,5.00
2017-10-29T23:33:49.343Z,5.60
2017-10-29T23:36:17.557Z,6.67
2017-10-29T23:38:45.687Z,6.03
2017-10-29T23:41:14.743Z,4.63
2017-10-29T23:43:42.898Z,6.23
2017-10-29T23:46:11.073Z,4.73
2017-10-29T23:48:39.246Z,4.60
2017-10-29T23:51:07.422Z,4.83
2017-10-29T23:53:35.561Z,5.10
2017-10-29T23:56:03.681Z,6.57
2017-10-29T23:58:31.818Z,6.50
